Mount Vernon, IL

9:15 PM CDT on September 15, 2014 (GMT -0500)
Mount Vernon | Change Station
CLOSE
Current Station
Airport
Location: Mount Vernon,
Elevation: 479 ft
Nearby Weather Stations

Elev 479 ft 38.32 °N, 88.86 °W | Updated 20 minutes ago

Overcast
Overcast
66 °F
Feels Like 66 °F
N
0
Wind Variable Wind from North

Today
High -- | Low -- °F
--% Chance of Precip.
Yesterday
High -- | Low -- °F
Precip. -- in
6:37 AM 7:03 PM
Waning Gibbous, 50% visible
Pressure 30.09 in
Visibility 8.0 miles
Clouds Mostly Cloudy 1200 ft
Mostly Cloudy 2200 ft
Overcast 3200 ft
Dew Point 63 °F
Humidity 88%
Rainfall 0.00 in
Snow Depth Not available.
UV 0 out of 12
Pollen 6.90 out of 12
Air Quality Not available.
Flu Activity Not available.
METAR KMVN 160155Z AUTO 00000KT 8SM BKN012 BKN022 OVC032 19/17 A3009 RMK AO1

More Conditions Fewer Conditions

Pressure 30.09 in
Visibility 8.0 miles
Clouds Mostly Cloudy 1200 ft
Mostly Cloudy 2200 ft
Overcast 3200 ft
Dew Point 63 °F
Humidity 88%
Rainfall 0.00 in
Snow Depth Not available.
UV 0 out of 12
Pollen 6.90 out of 12
Air Quality Not available.
Flu Activity Not available.
METAR KMVN 160155Z AUTO 00000KT 8SM BKN012 BKN022 OVC032 19/17 A3009 RMK AO1

More Conditions Fewer Conditions

10-Day Weather Forecast

Almanac

Astronomy

Sep. 15, 2014 Rise Set
Actual Time 6:37 AM CDT 7:03 PM CDT
Civil Twilight 6:10 AM CDT 7:30 PM CDT
Nautical Twilight 5:39 AM CDT 8:01 PM CDT
Astronomical Twilight 5:07 AM CDT 8:33 PM CDT
Moon 11:51 PM CDT (9/15) 1:32 PM CDT (9/15)
Length of Visible Light 13h 19m
Length of Day
12h 26m
Tomorrow will be 2m 27s shorter.
Waning Gibbous, 50% of the Moon is Illuminated
Today
Waning Gibbous
Sep 24
New
Oct 1
First Quarter
Oct 8
Full
Oct 15
Last Quarter

Today's Extremes

State Highs State Lows

Community

WunderPhotos

Upload Photos

1,753,664 photos uploaded!

WunderBlogs® & News

Nearby

Snow Depth

Station Depth Elevation
No new snow has been reported.

Earthquake Activity

City Distance Mag. Time & Date
No recent earthquake activity has been reported nearby.
Minimum magnitude displayed is 2.5.

Coastal Water Temperatures

Place Temperature
No Stations Reporting

Nearby Weather Stations